KDEN

Denver International Airport

Denver, Colorado, USA
METAR KDEN 230953Z 24004KT 2 1/2SM BR CLR M11/M12 A3001 RMK AO2 SLP209 I1000 T11061122
Observed Flight Rules
Feb-23 @ 09:53 UTC (33 minutes ago) Instrument Flight Rules
Wind Visibility Clouds Conditions
240° at 4 knots 2 1/2 miles
  • Clear skies
  • Mist
Temperatures Readings
Current -11°C / 12°F
Dewpoint -12°C / 10°F
Humidity 92%
Altimeter 30.01" Hg
Pressure 1020.9 hPa
Elevation 1640
METAR KDEN 230953Z 24004KT 2 1/2SM BR CLR M11/M12 A3001 RMK AO2 SLP209 I1000 T11061122
Observed Flight Rules
Feb-23 @ 09:53 UTC
(33 minutes ago)
IFR
Wind Visibility
240° at 4 knots 2 1/2 miles
Clouds
  • Clear skies
Conditions
  • Mist
Temperature Dewpoint
-11°C / 12°F -12°C / 10°F
Humidity Altimeter Pressure
92% 30.01" Hg 1020.9 hPa